sensor_id;sensor_type;location;lat;lon;timestamp;P1;durP1;ratioP1;P2;durP2;ratioP2
3733;SDS011;1882;52.256;8.874;2023-11-21T00:00:51;79.63;;;29.50;;
3733;SDS011;1882;52.256;8.874;2023-11-21T00:03:17;73.40;;;26.63;;
3733;SDS011;1882;52.256;8.874;2023-11-21T00:05:51;61.87;;;26.47;;
3733;SDS011;1882;52.256;8.874;2023-11-21T00:08:18;60.90;;;26.53;;
3733;SDS011;1882;52.256;8.874;2023-11-21T00:10:45;66.73;;;28.03;;
3733;SDS011;1882;52.256;8.874;2023-11-21T00:16:07;68.07;;;26.67;;
3733;SDS011;1882;52.256;8.874;2023-11-21T00:18:35;76.87;;;29.33;;
3733;SDS011;1882;52.256;8.874;2023-11-21T00:21:02;72.97;;;28.70;;
3733;SDS011;1882;52.256;8.874;2023-11-21T00:23:32;79.00;;;30.10;;
3733;SDS011;1882;52.256;8.874;2023-11-21T00:26:08;76.57;;;27.37;;
3733;SDS011;1882;52.256;8.874;2023-11-21T00:28:35;88.43;;;30.20;;
3733;SDS011;1882;52.256;8.874;2023-11-21T00:31:08;94.17;;;30.33;;
3733;SDS011;1882;52.256;8.874;2023-11-21T00:33:35;88.80;;;29.23;;
3733;SDS011;1882;52.256;8.874;2023-11-21T00:36:02;91.23;;;30.23;;
3733;SDS011;1882;52.256;8.874;2023-11-21T00:38:29;111.57;;;32.13;;
3733;SDS011;1882;52.256;8.874;2023-11-21T00:40:57;84.30;;;29.77;;
3733;SDS011;1882;52.256;8.874;2023-11-21T00:43:28;78.87;;;28.97;;
3733;SDS011;1882;52.256;8.874;2023-11-21T00:45:55;78.93;;;29.03;;
3733;SDS011;1882;52.256;8.874;2023-11-21T00:48:22;81.90;;;28.67;;
3733;SDS011;1882;52.256;8.874;2023-11-21T00:50:56;71.93;;;27.40;;
3733;SDS011;1882;52.256;8.874;2023-11-21T00:53:26;77.60;;;27.50;;
3733;SDS011;1882;52.256;8.874;2023-11-21T00:55:53;68.83;;;26.90;;
3733;SDS011;1882;52.256;8.874;2023-11-21T00:58:29;90.73;;;27.50;;
3733;SDS011;1882;52.256;8.874;2023-11-21T01:00:56;73.20;;;25.40;;
3733;SDS011;1882;52.256;8.874;2023-11-21T01:03:24;71.20;;;25.27;;
3733;SDS011;1882;52.256;8.874;2023-11-21T01:05:51;74.47;;;24.90;;
3733;SDS011;1882;52.256;8.874;2023-11-21T01:08:28;79.63;;;25.93;;
3733;SDS011;1882;52.256;8.874;2023-11-21T01:10:55;67.80;;;24.30;;
3733;SDS011;1882;52.256;8.874;2023-11-21T01:13:22;89.47;;;28.07;;
3733;SDS011;1882;52.256;8.874;2023-11-21T01:15:56;89.77;;;27.00;;
3733;SDS011;1882;52.256;8.874;2023-11-21T01:18:22;88.23;;;27.80;;
3733;SDS011;1882;52.256;8.874;2023-11-21T01:20:52;73.07;;;25.37;;
3733;SDS011;1882;52.256;8.874;2023-11-21T01:23:36;97.43;;;24.70;;
3733;SDS011;1882;52.256;8.874;2023-11-21T01:26:11;70.90;;;23.03;;
3733;SDS011;1882;52.256;8.874;2023-11-21T01:28:38;78.07;;;24.57;;
3733;SDS011;1882;52.256;8.874;2023-11-21T01:31:05;67.23;;;24.70;;
3733;SDS011;1882;52.256;8.874;2023-11-21T01:34:09;81.27;;;26.20;;
3733;SDS011;1882;52.256;8.874;2023-11-21T01:36:36;81.00;;;25.07;;
3733;SDS011;1882;52.256;8.874;2023-11-21T01:39:14;84.83;;;24.60;;
3733;SDS011;1882;52.256;8.874;2023-11-21T01:42:34;83.90;;;25.40;;
3733;SDS011;1882;52.256;8.874;2023-11-21T01:45:01;73.37;;;24.43;;
3733;SDS011;1882;52.256;8.874;2023-11-21T01:47:50;74.00;;;24.63;;
3733;SDS011;1882;52.256;8.874;2023-11-21T01:50:23;85.20;;;26.30;;
3733;SDS011;1882;52.256;8.874;2023-11-21T01:52:52;69.60;;;23.60;;
3733;SDS011;1882;52.256;8.874;2023-11-21T01:55:19;79.47;;;23.63;;
3733;SDS011;1882;52.256;8.874;2023-11-21T01:57:58;83.67;;;24.90;;
3733;SDS011;1882;52.256;8.874;2023-11-21T02:00:26;73.90;;;24.00;;
3733;SDS011;1882;52.256;8.874;2023-11-21T02:03:25;83.77;;;24.67;;
3733;SDS011;1882;52.256;8.874;2023-11-21T02:05:53;100.57;;;27.17;;
3733;SDS011;1882;52.256;8.874;2023-11-21T02:08:20;83.97;;;26.00;;
3733;SDS011;1882;52.256;8.874;2023-11-21T02:10:56;98.90;;;25.70;;
3733;SDS011;1882;52.256;8.874;2023-11-21T02:13:24;90.63;;;25.43;;
3733;SDS011;1882;52.256;8.874;2023-11-21T02:15:51;117.07;;;27.87;;
3733;SDS011;1882;52.256;8.874;2023-11-21T02:18:28;128.77;;;28.10;;
3733;SDS011;1882;52.256;8.874;2023-11-21T02:20:56;128.37;;;27.47;;
3733;SDS011;1882;52.256;8.874;2023-11-21T02:23:25;88.77;;;25.30;;
3733;SDS011;1882;52.256;8.874;2023-11-21T02:25:55;115.33;;;27.37;;
3733;SDS011;1882;52.256;8.874;2023-11-21T02:28:23;108.97;;;25.60;;
3733;SDS011;1882;52.256;8.874;2023-11-21T02:30:52;92.23;;;25.43;;
3733;SDS011;1882;52.256;8.874;2023-11-21T02:33:28;100.23;;;24.80;;
3733;SDS011;1882;52.256;8.874;2023-11-21T02:35:55;93.40;;;26.00;;
3733;SDS011;1882;52.256;8.874;2023-11-21T02:38:27;88.33;;;25.50;;
3733;SDS011;1882;52.256;8.874;2023-11-21T02:40:57;103.93;;;26.47;;
3733;SDS011;1882;52.256;8.874;2023-11-21T02:43:27;117.50;;;26.57;;
3733;SDS011;1882;52.256;8.874;2023-11-21T02:45:53;109.53;;;28.23;;
3733;SDS011;1882;52.256;8.874;2023-11-21T02:48:27;95.03;;;26.77;;
3733;SDS011;1882;52.256;8.874;2023-11-21T02:50:57;106.80;;;27.03;;
3733;SDS011;1882;52.256;8.874;2023-11-21T02:53:28;108.63;;;27.60;;
3733;SDS011;1882;52.256;8.874;2023-11-21T02:56:04;86.17;;;25.10;;
3733;SDS011;1882;52.256;8.874;2023-11-21T02:58:34;116.77;;;25.40;;
3733;SDS011;1882;52.256;8.874;2023-11-21T03:01:01;94.20;;;25.97;;
3733;SDS011;1882;52.256;8.874;2023-11-21T03:03:32;99.20;;;25.83;;
3733;SDS011;1882;52.256;8.874;2023-11-21T03:05:59;80.53;;;23.90;;
3733;SDS011;1882;52.256;8.874;2023-11-21T03:08:26;103.30;;;26.40;;
3733;SDS011;1882;52.256;8.874;2023-11-21T03:10:53;100.83;;;25.27;;
3733;SDS011;1882;52.256;8.874;2023-11-21T03:13:27;97.97;;;25.07;;
3733;SDS011;1882;52.256;8.874;2023-11-21T03:15:54;100.67;;;26.10;;
3733;SDS011;1882;52.256;8.874;2023-11-21T03:18:22;103.40;;;26.53;;
3733;SDS011;1882;52.256;8.874;2023-11-21T03:20:49;86.80;;;25.33;;
3733;SDS011;1882;52.256;8.874;2023-11-21T03:23:25;92.37;;;25.87;;
3733;SDS011;1882;52.256;8.874;2023-11-21T03:25:52;87.03;;;24.43;;
3733;SDS011;1882;52.256;8.874;2023-11-21T03:28:18;77.43;;;23.97;;
3733;SDS011;1882;52.256;8.874;2023-11-21T03:33:37;100.13;;;26.10;;
3733;SDS011;1882;52.256;8.874;2023-11-21T03:36:06;104.50;;;26.17;;
3733;SDS011;1882;52.256;8.874;2023-11-21T03:38:44;91.77;;;25.17;;
3733;SDS011;1882;52.256;8.874;2023-11-21T03:41:19;95.80;;;25.83;;
3733;SDS011;1882;52.256;8.874;2023-11-21T03:43:45;95.63;;;24.60;;
3733;SDS011;1882;52.256;8.874;2023-11-21T03:46:15;95.47;;;24.47;;
3733;SDS011;1882;52.256;8.874;2023-11-21T03:48:45;91.93;;;25.70;;
3733;SDS011;1882;52.256;8.874;2023-11-21T03:51:14;106.40;;;24.63;;
3733;SDS011;1882;52.256;8.874;2023-11-21T03:53:49;99.00;;;24.93;;
3733;SDS011;1882;52.256;8.874;2023-11-21T03:56:15;109.17;;;26.60;;
3733;SDS011;1882;52.256;8.874;2023-11-21T03:58:53;87.90;;;24.63;;
3733;SDS011;1882;52.256;8.874;2023-11-21T04:01:23;96.90;;;23.33;;
3733;SDS011;1882;52.256;8.874;2023-11-21T04:04:07;96.13;;;24.00;;
3733;SDS011;1882;52.256;8.874;2023-11-21T04:09:31;98.67;;;22.70;;
3733;SDS011;1882;52.256;8.874;2023-11-21T04:11:58;118.30;;;24.40;;
3733;SDS011;1882;52.256;8.874;2023-11-21T04:14:25;112.03;;;24.13;;
3733;SDS011;1882;52.256;8.874;2023-11-21T04:16:51;103.00;;;25.07;;
3733;SDS011;1882;52.256;8.874;2023-11-21T04:19:21;86.50;;;22.43;;
3733;SDS011;1882;52.256;8.874;2023-11-21T04:21:49;105.80;;;23.87;;
3733;SDS011;1882;52.256;8.874;2023-11-21T04:24:16;88.00;;;21.10;;
3733;SDS011;1882;52.256;8.874;2023-11-21T04:26:43;77.17;;;19.10;;
3733;SDS011;1882;52.256;8.874;2023-11-21T04:29:21;68.97;;;19.47;;
3733;SDS011;1882;52.256;8.874;2023-11-21T04:31:49;73.30;;;20.10;;
3733;SDS011;1882;52.256;8.874;2023-11-21T04:34:15;54.37;;;17.23;;
3733;SDS011;1882;52.256;8.874;2023-11-21T04:36:54;61.90;;;18.17;;
3733;SDS011;1882;52.256;8.874;2023-11-21T04:39:21;68.00;;;18.40;;
3733;SDS011;1882;52.256;8.874;2023-11-21T04:41:48;60.33;;;17.90;;
3733;SDS011;1882;52.256;8.874;2023-11-21T04:44:19;49.20;;;16.40;;
3733;SDS011;1882;52.256;8.874;2023-11-21T04:46:49;66.27;;;17.80;;
3733;SDS011;1882;52.256;8.874;2023-11-21T04:49:16;58.10;;;17.23;;
3733;SDS011;1882;52.256;8.874;2023-11-21T04:51:42;58.00;;;17.63;;
3733;SDS011;1882;52.256;8.874;2023-11-21T04:54:14;52.97;;;17.13;;
3733;SDS011;1882;52.256;8.874;2023-11-21T04:56:41;52.40;;;17.27;;
3733;SDS011;1882;52.256;8.874;2023-11-21T04:59:08;68.70;;;19.30;;
3733;SDS011;1882;52.256;8.874;2023-11-21T05:01:35;60.50;;;18.70;;
3733;SDS011;1882;52.256;8.874;2023-11-21T05:04:10;64.70;;;19.13;;
3733;SDS011;1882;52.256;8.874;2023-11-21T05:06:37;58.57;;;16.37;;
3733;SDS011;1882;52.256;8.874;2023-11-21T05:09:06;58.13;;;15.13;;
3733;SDS011;1882;52.256;8.874;2023-11-21T05:12:04;58.17;;;14.90;;
3733;SDS011;1882;52.256;8.874;2023-11-21T05:14:32;53.40;;;16.00;;
3733;SDS011;1882;52.256;8.874;2023-11-21T05:17:00;50.13;;;14.73;;
3733;SDS011;1882;52.256;8.874;2023-11-21T05:19:36;44.37;;;14.50;;
3733;SDS011;1882;52.256;8.874;2023-11-21T05:22:05;42.97;;;12.83;;
3733;SDS011;1882;52.256;8.874;2023-11-21T05:24:32;40.90;;;12.20;;
3733;SDS011;1882;52.256;8.874;2023-11-21T05:26:59;37.80;;;12.23;;
3733;SDS011;1882;52.256;8.874;2023-11-21T05:29:26;37.90;;;11.90;;
3733;SDS011;1882;52.256;8.874;2023-11-21T05:31:53;41.33;;;13.13;;
3733;SDS011;1882;52.256;8.874;2023-11-21T05:34:20;39.70;;;11.73;;
3733;SDS011;1882;52.256;8.874;2023-11-21T05:36:50;37.43;;;11.40;;
3733;SDS011;1882;52.256;8.874;2023-11-21T05:39:20;37.17;;;11.97;;
3733;SDS011;1882;52.256;8.874;2023-11-21T05:41:48;32.37;;;10.80;;
3733;SDS011;1882;52.256;8.874;2023-11-21T05:44:16;22.63;;;9.17;;
3733;SDS011;1882;52.256;8.874;2023-11-21T05:46:43;27.70;;;10.67;;
3733;SDS011;1882;52.256;8.874;2023-11-21T05:49:17;37.50;;;10.70;;
3733;SDS011;1882;52.256;8.874;2023-11-21T05:51:48;23.20;;;9.13;;
3733;SDS011;1882;52.256;8.874;2023-11-21T05:54:24;29.07;;;9.97;;
3733;SDS011;1882;52.256;8.874;2023-11-21T05:56:51;37.90;;;10.50;;
3733;SDS011;1882;52.256;8.874;2023-11-21T05:59:18;20.50;;;8.87;;
3733;SDS011;1882;52.256;8.874;2023-11-21T06:01:52;29.43;;;9.60;;
3733;SDS011;1882;52.256;8.874;2023-11-21T06:04:20;30.27;;;10.30;;
3733;SDS011;1882;52.256;8.874;2023-11-21T06:06:55;32.50;;;10.27;;
3733;SDS011;1882;52.256;8.874;2023-11-21T06:09:28;28.53;;;12.40;;
3733;SDS011;1882;52.256;8.874;2023-11-21T06:11:55;38.33;;;12.53;;
3733;SDS011;1882;52.256;8.874;2023-11-21T06:14:22;33.53;;;11.77;;
3733;SDS011;1882;52.256;8.874;2023-11-21T06:19:41;37.50;;;12.30;;
3733;SDS011;1882;52.256;8.874;2023-11-21T06:22:08;143.60;;;14.23;;
3733;SDS011;1882;52.256;8.874;2023-11-21T06:24:35;62.13;;;11.10;;
3733;SDS011;1882;52.256;8.874;2023-11-21T06:29:56;27.10;;;10.13;;
3733;SDS011;1882;52.256;8.874;2023-11-21T06:32:27;29.50;;;11.73;;
3733;SDS011;1882;52.256;8.874;2023-11-21T06:34:59;33.43;;;12.00;;
3733;SDS011;1882;52.256;8.874;2023-11-21T06:37:26;41.10;;;12.60;;
3733;SDS011;1882;52.256;8.874;2023-11-21T06:39:57;41.63;;;12.73;;
3733;SDS011;1882;52.256;8.874;2023-11-21T06:42:25;64.20;;;14.13;;
3733;SDS011;1882;52.256;8.874;2023-11-21T06:44:58;61.37;;;13.63;;
3733;SDS011;1882;52.256;8.874;2023-11-21T06:47:25;85.43;;;15.40;;
3733;SDS011;1882;52.256;8.874;2023-11-21T06:49:56;136.10;;;19.30;;
3733;SDS011;1882;52.256;8.874;2023-11-21T06:52:25;74.90;;;15.33;;
3733;SDS011;1882;52.256;8.874;2023-11-21T06:54:56;48.77;;;13.57;;
3733;SDS011;1882;52.256;8.874;2023-11-21T06:57:26;208.07;;;18.00;;
3733;SDS011;1882;52.256;8.874;2023-11-21T07:00:03;74.83;;;15.20;;
3733;SDS011;1882;52.256;8.874;2023-11-21T07:02:33;93.90;;;16.03;;
3733;SDS011;1882;52.256;8.874;2023-11-21T07:05:11;61.33;;;14.10;;
3733;SDS011;1882;52.256;8.874;2023-11-21T07:07:43;126.20;;;17.93;;
3733;SDS011;1882;52.256;8.874;2023-11-21T07:10:16;91.53;;;15.47;;
3733;SDS011;1882;52.256;8.874;2023-11-21T07:12:43;54.93;;;14.30;;
3733;SDS011;1882;52.256;8.874;2023-11-21T07:15:13;123.43;;;15.77;;
3733;SDS011;1882;52.256;8.874;2023-11-21T07:17:43;143.13;;;15.97;;
3733;SDS011;1882;52.256;8.874;2023-11-21T07:20:11;94.03;;;15.50;;
3733;SDS011;1882;52.256;8.874;2023-11-21T07:22:38;172.03;;;16.77;;
3733;SDS011;1882;52.256;8.874;2023-11-21T07:25:05;181.57;;;17.93;;
3733;SDS011;1882;52.256;8.874;2023-11-21T07:27:41;157.83;;;17.57;;
3733;SDS011;1882;52.256;8.874;2023-11-21T07:30:10;211.43;;;17.90;;
3733;SDS011;1882;52.256;8.874;2023-11-21T07:32:37;298.50;;;20.20;;
3733;SDS011;1882;52.256;8.874;2023-11-21T07:38:16;183.03;;;17.47;;
3733;SDS011;1882;52.256;8.874;2023-11-21T07:43:33;172.50;;;17.27;;
3733;SDS011;1882;52.256;8.874;2023-11-21T07:46:27;130.40;;;15.73;;
3733;SDS011;1882;52.256;8.874;2023-11-21T07:49:13;126.90;;;15.87;;
3733;SDS011;1882;52.256;8.874;2023-11-21T07:51:43;164.33;;;16.00;;
3733;SDS011;1882;52.256;8.874;2023-11-21T07:54:10;129.67;;;16.27;;
3733;SDS011;1882;52.256;8.874;2023-11-21T07:56:41;219.37;;;16.87;;
3733;SDS011;1882;52.256;8.874;2023-11-21T07:59:08;239.47;;;20.03;;
3733;SDS011;1882;52.256;8.874;2023-11-21T08:01:35;80.93;;;16.43;;
3733;SDS011;1882;52.256;8.874;2023-11-21T08:04:09;98.60;;;15.40;;
3733;SDS011;1882;52.256;8.874;2023-11-21T08:06:39;41.27;;;14.97;;
3733;SDS011;1882;52.256;8.874;2023-11-21T08:09:26;58.10;;;14.80;;
3733;SDS011;1882;52.256;8.874;2023-11-21T08:12:05;39.70;;;15.27;;
3733;SDS011;1882;52.256;8.874;2023-11-21T08:14:34;59.97;;;14.90;;
3733;SDS011;1882;52.256;8.874;2023-11-21T08:17:12;539.17;;;28.53;;
3733;SDS011;1882;52.256;8.874;2023-11-21T08:19:40;457.90;;;24.73;;
3733;SDS011;1882;52.256;8.874;2023-11-21T08:22:10;512.83;;;26.43;;
3733;SDS011;1882;52.256;8.874;2023-11-21T08:24:39;546.80;;;25.40;;
3733;SDS011;1882;52.256;8.874;2023-11-21T08:27:07;783.17;;;33.90;;
3733;SDS011;1882;52.256;8.874;2023-11-21T08:29:33;556.87;;;26.87;;
3733;SDS011;1882;52.256;8.874;2023-11-21T08:32:00;686.53;;;30.07;;
3733;SDS011;1882;52.256;8.874;2023-11-21T08:34:27;506.40;;;23.27;;
3733;SDS011;1882;52.256;8.874;2023-11-21T08:36:55;343.20;;;18.70;;
3733;SDS011;1882;52.256;8.874;2023-11-21T08:39:23;427.23;;;21.03;;
3733;SDS011;1882;52.256;8.874;2023-11-21T08:41:50;381.70;;;21.73;;
3733;SDS011;1882;52.256;8.874;2023-11-21T08:44:17;329.20;;;17.97;;
3733;SDS011;1882;52.256;8.874;2023-11-21T08:46:44;383.30;;;18.57;;
3733;SDS011;1882;52.256;8.874;2023-11-21T08:49:14;181.93;;;12.17;;
3733;SDS011;1882;52.256;8.874;2023-11-21T08:51:41;195.93;;;12.80;;
3733;SDS011;1882;52.256;8.874;2023-11-21T08:54:08;340.00;;;18.37;;
3733;SDS011;1882;52.256;8.874;2023-11-21T08:56:35;100.33;;;8.30;;
3733;SDS011;1882;52.256;8.874;2023-11-21T08:59:11;395.50;;;19.37;;
3733;SDS011;1882;52.256;8.874;2023-11-21T09:01:41;333.93;;;16.60;;
3733;SDS011;1882;52.256;8.874;2023-11-21T09:04:07;291.13;;;13.90;;
3733;SDS011;1882;52.256;8.874;2023-11-21T09:06:34;148.40;;;11.17;;
3733;SDS011;1882;52.256;8.874;2023-11-21T09:09:04;79.03;;;9.07;;
3733;SDS011;1882;52.256;8.874;2023-11-21T09:11:35;37.33;;;6.90;;
3733;SDS011;1882;52.256;8.874;2023-11-21T09:14:03;82.30;;;7.73;;
3733;SDS011;1882;52.256;8.874;2023-11-21T09:16:34;45.40;;;7.70;;
3733;SDS011;1882;52.256;8.874;2023-11-21T09:19:05;12.17;;;5.60;;
3733;SDS011;1882;52.256;8.874;2023-11-21T09:21:34;18.23;;;7.03;;
3733;SDS011;1882;52.256;8.874;2023-11-21T09:24:08;11.97;;;6.80;;
3733;SDS011;1882;52.256;8.874;2023-11-21T09:26:35;10.90;;;5.57;;
3733;SDS011;1882;52.256;8.874;2023-11-21T09:29:02;10.67;;;5.80;;
3733;SDS011;1882;52.256;8.874;2023-11-21T09:31:35;12.80;;;6.13;;
3733;SDS011;1882;52.256;8.874;2023-11-21T09:34:05;15.27;;;6.77;;
3733;SDS011;1882;52.256;8.874;2023-11-21T09:36:32;12.73;;;6.73;;
3733;SDS011;1882;52.256;8.874;2023-11-21T09:39:10;18.83;;;6.67;;
3733;SDS011;1882;52.256;8.874;2023-11-21T09:41:42;10.60;;;5.90;;
3733;SDS011;1882;52.256;8.874;2023-11-21T09:44:12;10.93;;;6.40;;
3733;SDS011;1882;52.256;8.874;2023-11-21T09:46:42;12.20;;;6.80;;
3733;SDS011;1882;52.256;8.874;2023-11-21T09:49:09;10.43;;;6.43;;
3733;SDS011;1882;52.256;8.874;2023-11-21T09:51:39;10.60;;;5.67;;
3733;SDS011;1882;52.256;8.874;2023-11-21T09:54:13;10.50;;;6.30;;
3733;SDS011;1882;52.256;8.874;2023-11-21T09:56:42;9.90;;;6.10;;
3733;SDS011;1882;52.256;8.874;2023-11-21T09:59:13;12.03;;;6.00;;
3733;SDS011;1882;52.256;8.874;2023-11-21T10:01:42;12.17;;;6.37;;
3733;SDS011;1882;52.256;8.874;2023-11-21T10:04:09;9.23;;;5.83;;
3733;SDS011;1882;52.256;8.874;2023-11-21T10:06:39;10.27;;;5.50;;
3733;SDS011;1882;52.256;8.874;2023-11-21T10:09:11;12.03;;;6.17;;
3733;SDS011;1882;52.256;8.874;2023-11-21T10:11:57;13.30;;;6.93;;
3733;SDS011;1882;52.256;8.874;2023-11-21T10:14:41;12.20;;;6.23;;
3733;SDS011;1882;52.256;8.874;2023-11-21T10:17:12;13.23;;;7.50;;
3733;SDS011;1882;52.256;8.874;2023-11-21T10:19:42;12.80;;;7.10;;
3733;SDS011;1882;52.256;8.874;2023-11-21T10:22:09;18.33;;;7.93;;
3733;SDS011;1882;52.256;8.874;2023-11-21T10:24:36;19.10;;;9.10;;
3733;SDS011;1882;52.256;8.874;2023-11-21T10:27:21;16.80;;;9.10;;
3733;SDS011;1882;52.256;8.874;2023-11-21T10:29:54;19.87;;;10.70;;
3733;SDS011;1882;52.256;8.874;2023-11-21T10:32:20;19.47;;;10.30;;
3733;SDS011;1882;52.256;8.874;2023-11-21T10:34:57;16.97;;;9.30;;
3733;SDS011;1882;52.256;8.874;2023-11-21T10:37:38;17.40;;;9.17;;
3733;SDS011;1882;52.256;8.874;2023-11-21T10:40:10;15.70;;;9.30;;
3733;SDS011;1882;52.256;8.874;2023-11-21T10:42:40;17.70;;;9.03;;
3733;SDS011;1882;52.256;8.874;2023-11-21T10:45:07;15.63;;;8.97;;
3733;SDS011;1882;52.256;8.874;2023-11-21T10:47:41;15.73;;;8.70;;
3733;SDS011;1882;52.256;8.874;2023-11-21T10:50:12;15.77;;;8.97;;
3733;SDS011;1882;52.256;8.874;2023-11-21T10:52:48;19.80;;;10.17;;
3733;SDS011;1882;52.256;8.874;2023-11-21T10:55:17;20.43;;;9.90;;
3733;SDS011;1882;52.256;8.874;2023-11-21T10:57:48;18.53;;;9.40;;
3733;SDS011;1882;52.256;8.874;2023-11-21T11:00:15;17.80;;;9.30;;
3733;SDS011;1882;52.256;8.874;2023-11-21T11:02:43;17.97;;;8.90;;
3733;SDS011;1882;52.256;8.874;2023-11-21T11:05:12;16.43;;;9.30;;
3733;SDS011;1882;52.256;8.874;2023-11-21T11:07:40;17.33;;;9.10;;
3733;SDS011;1882;52.256;8.874;2023-11-21T11:10:19;19.53;;;10.50;;
3733;SDS011;1882;52.256;8.874;2023-11-21T11:16:13;16.50;;;8.97;;
3733;SDS011;1882;52.256;8.874;2023-11-21T11:18:44;14.73;;;8.63;;
3733;SDS011;1882;52.256;8.874;2023-11-21T11:34:06;17.80;;;8.90;;
3733;SDS011;1882;52.256;8.874;2023-11-21T11:36:55;14.30;;;8.33;;
3733;SDS011;1882;52.256;8.874;2023-11-21T11:40:54;13.90;;;7.47;;
3733;SDS011;1882;52.256;8.874;2023-11-21T11:43:36;11.93;;;7.07;;
3733;SDS011;1882;52.256;8.874;2023-11-21T11:46:49;13.97;;;7.10;;
3733;SDS011;1882;52.256;8.874;2023-11-21T11:50:38;12.00;;;6.90;;
3733;SDS011;1882;52.256;8.874;2023-11-21T11:54:09;10.57;;;7.10;;
3733;SDS011;1882;52.256;8.874;2023-11-21T11:56:43;11.77;;;7.70;;
3733;SDS011;1882;52.256;8.874;2023-11-21T11:59:10;11.50;;;6.60;;
3733;SDS011;1882;52.256;8.874;2023-11-21T12:01:37;15.30;;;7.10;;
3733;SDS011;1882;52.256;8.874;2023-11-21T12:06:46;14.90;;;6.97;;
3733;SDS011;1882;52.256;8.874;2023-11-21T12:09:20;10.13;;;6.73;;
3733;SDS011;1882;52.256;8.874;2023-11-21T12:12:13;10.00;;;6.23;;
3733;SDS011;1882;52.256;8.874;2023-11-21T12:14:42;9.80;;;6.63;;
3733;SDS011;1882;52.256;8.874;2023-11-21T12:20:40;10.53;;;6.43;;
3733;SDS011;1882;52.256;8.874;2023-11-21T12:27:37;15.70;;;7.67;;
3733;SDS011;1882;52.256;8.874;2023-11-21T12:31:10;11.30;;;7.33;;
3733;SDS011;1882;52.256;8.874;2023-11-21T12:33:47;14.23;;;6.70;;
3733;SDS011;1882;52.256;8.874;2023-11-21T12:36:15;13.37;;;7.40;;
3733;SDS011;1882;52.256;8.874;2023-11-21T12:38:42;10.47;;;6.67;;
3733;SDS011;1882;52.256;8.874;2023-11-21T12:41:09;15.50;;;8.17;;
3733;SDS011;1882;52.256;8.874;2023-11-21T12:43:36;13.10;;;7.23;;
3733;SDS011;1882;52.256;8.874;2023-11-21T12:46:06;12.63;;;7.90;;
3733;SDS011;1882;52.256;8.874;2023-11-21T12:48:34;13.50;;;6.87;;
3733;SDS011;1882;52.256;8.874;2023-11-21T12:51:06;9.73;;;6.90;;
3733;SDS011;1882;52.256;8.874;2023-11-21T12:53:36;13.50;;;7.17;;
3733;SDS011;1882;52.256;8.874;2023-11-21T12:56:07;11.37;;;7.00;;
3733;SDS011;1882;52.256;8.874;2023-11-21T12:58:36;16.10;;;7.47;;
3733;SDS011;1882;52.256;8.874;2023-11-21T13:01:06;11.80;;;7.50;;
3733;SDS011;1882;52.256;8.874;2023-11-21T13:03:38;10.70;;;6.90;;
3733;SDS011;1882;52.256;8.874;2023-11-21T13:06:07;12.13;;;7.10;;
3733;SDS011;1882;52.256;8.874;2023-11-21T13:08:34;12.10;;;6.80;;
3733;SDS011;1882;52.256;8.874;2023-11-21T13:11:01;13.37;;;7.60;;
3733;SDS011;1882;52.256;8.874;2023-11-21T13:13:29;9.27;;;5.83;;
3733;SDS011;1882;52.256;8.874;2023-11-21T13:15:58;9.90;;;6.73;;
3733;SDS011;1882;52.256;8.874;2023-11-21T13:18:30;13.30;;;7.10;;
3733;SDS011;1882;52.256;8.874;2023-11-21T13:20:58;11.70;;;7.30;;
3733;SDS011;1882;52.256;8.874;2023-11-21T13:23:35;11.93;;;6.83;;
3733;SDS011;1882;52.256;8.874;2023-11-21T13:26:06;14.70;;;6.67;;
3733;SDS011;1882;52.256;8.874;2023-11-21T13:28:35;10.47;;;6.90;;
3733;SDS011;1882;52.256;8.874;2023-11-21T13:31:04;9.20;;;6.00;;
3733;SDS011;1882;52.256;8.874;2023-11-21T13:33:50;11.47;;;6.33;;
3733;SDS011;1882;52.256;8.874;2023-11-21T13:36:23;9.40;;;6.40;;
3733;SDS011;1882;52.256;8.874;2023-11-21T13:38:50;14.47;;;7.40;;
3733;SDS011;1882;52.256;8.874;2023-11-21T13:41:19;10.30;;;6.70;;
3733;SDS011;1882;52.256;8.874;2023-11-21T13:43:46;11.73;;;7.87;;
3733;SDS011;1882;52.256;8.874;2023-11-21T13:46:20;13.00;;;7.43;;
3733;SDS011;1882;52.256;8.874;2023-11-21T13:48:49;11.63;;;6.73;;
3733;SDS011;1882;52.256;8.874;2023-11-21T13:51:23;12.27;;;7.03;;
3733;SDS011;1882;52.256;8.874;2023-11-21T13:54:08;9.27;;;6.50;;
3733;SDS011;1882;52.256;8.874;2023-11-21T13:56:37;10.47;;;6.90;;
3733;SDS011;1882;52.256;8.874;2023-11-21T13:59:15;14.93;;;7.00;;
3733;SDS011;1882;52.256;8.874;2023-11-21T14:02:01;12.50;;;6.70;;
3733;SDS011;1882;52.256;8.874;2023-11-21T14:04:59;9.40;;;6.83;;
3733;SDS011;1882;52.256;8.874;2023-11-21T14:07:38;10.37;;;6.07;;
3733;SDS011;1882;52.256;8.874;2023-11-21T14:10:31;11.30;;;6.93;;
3733;SDS011;1882;52.256;8.874;2023-11-21T14:13:15;9.70;;;6.33;;
3733;SDS011;1882;52.256;8.874;2023-11-21T14:15:54;12.00;;;7.10;;
3733;SDS011;1882;52.256;8.874;2023-11-21T14:18:26;9.90;;;6.13;;
3733;SDS011;1882;52.256;8.874;2023-11-21T14:21:16;8.60;;;5.83;;
3733;SDS011;1882;52.256;8.874;2023-11-21T14:23:50;13.40;;;6.17;;
3733;SDS011;1882;52.256;8.874;2023-11-21T14:26:17;10.90;;;6.70;;
3733;SDS011;1882;52.256;8.874;2023-11-21T14:28:44;9.93;;;6.60;;
3733;SDS011;1882;52.256;8.874;2023-11-21T14:31:11;12.63;;;6.83;;
3733;SDS011;1882;52.256;8.874;2023-11-21T14:33:40;10.83;;;6.90;;
3733;SDS011;1882;52.256;8.874;2023-11-21T14:36:07;9.53;;;6.20;;
3733;SDS011;1882;52.256;8.874;2023-11-21T14:38:36;9.03;;;6.27;;
3733;SDS011;1882;52.256;8.874;2023-11-21T14:41:06;9.90;;;6.50;;
3733;SDS011;1882;52.256;8.874;2023-11-21T14:43:41;10.03;;;6.47;;
3733;SDS011;1882;52.256;8.874;2023-11-21T14:46:09;10.80;;;7.27;;
3733;SDS011;1882;52.256;8.874;2023-11-21T14:48:43;11.07;;;6.40;;
3733;SDS011;1882;52.256;8.874;2023-11-21T14:51:38;11.93;;;6.70;;
3733;SDS011;1882;52.256;8.874;2023-11-21T14:54:56;10.23;;;6.33;;
3733;SDS011;1882;52.256;8.874;2023-11-21T14:58:06;10.80;;;6.60;;
3733;SDS011;1882;52.256;8.874;2023-11-21T15:00:43;10.80;;;6.60;;
3733;SDS011;1882;52.256;8.874;2023-11-21T15:03:22;10.60;;;6.80;;
3733;SDS011;1882;52.256;8.874;2023-11-21T15:07:10;13.27;;;6.93;;
3733;SDS011;1882;52.256;8.874;2023-11-21T15:10:49;10.90;;;7.03;;
3733;SDS011;1882;52.256;8.874;2023-11-21T15:13:52;11.17;;;6.80;;
3733;SDS011;1882;52.256;8.874;2023-11-21T15:20:13;10.73;;;7.00;;
3733;SDS011;1882;52.256;8.874;2023-11-21T15:27:06;11.47;;;6.20;;
3733;SDS011;1882;52.256;8.874;2023-11-21T15:35:03;10.40;;;6.57;;
3733;SDS011;1882;52.256;8.874;2023-11-21T15:37:45;9.63;;;6.37;;
3733;SDS011;1882;52.256;8.874;2023-11-21T15:40:47;11.57;;;6.27;;
3733;SDS011;1882;52.256;8.874;2023-11-21T15:43:24;12.03;;;7.10;;
3733;SDS011;1882;52.256;8.874;2023-11-21T15:48:55;12.03;;;7.70;;
3733;SDS011;1882;52.256;8.874;2023-11-21T15:51:22;12.20;;;7.40;;
3733;SDS011;1882;52.256;8.874;2023-11-21T15:53:49;12.23;;;6.90;;
3733;SDS011;1882;52.256;8.874;2023-11-21T15:56:34;10.37;;;6.70;;
3733;SDS011;1882;52.256;8.874;2023-11-21T15:59:04;9.27;;;6.33;;
3733;SDS011;1882;52.256;8.874;2023-11-21T16:01:37;14.63;;;6.87;;
3733;SDS011;1882;52.256;8.874;2023-11-21T16:04:15;8.53;;;6.00;;
3733;SDS011;1882;52.256;8.874;2023-11-21T16:06:43;9.07;;;6.13;;
3733;SDS011;1882;52.256;8.874;2023-11-21T16:09:12;9.30;;;5.90;;
3733;SDS011;1882;52.256;8.874;2023-11-21T16:11:51;9.67;;;6.27;;
3733;SDS011;1882;52.256;8.874;2023-11-21T16:14:23;12.23;;;7.00;;
3733;SDS011;1882;52.256;8.874;2023-11-21T16:16:54;10.77;;;6.60;;
3733;SDS011;1882;52.256;8.874;2023-11-21T16:19:21;12.47;;;6.57;;
3733;SDS011;1882;52.256;8.874;2023-11-21T16:21:47;10.33;;;7.00;;
3733;SDS011;1882;52.256;8.874;2023-11-21T16:24:14;10.30;;;6.80;;
3733;SDS011;1882;52.256;8.874;2023-11-21T16:26:43;8.80;;;6.30;;
3733;SDS011;1882;52.256;8.874;2023-11-21T16:29:12;8.50;;;5.80;;
3733;SDS011;1882;52.256;8.874;2023-11-21T16:31:42;9.30;;;6.20;;